Time;durP1;ratioP1;P1;durP2;ratioP2;P2;SDS_P1;SDS_P2;PMS_P1;PMS_P2;Temp;Humidity;BMP_temperature;BMP_pressure;BME280_temperature;BME280_humidity;BME280_pressure;Samples;Min_cycle;Max_cycle;Signal;HPM_P1;HPM_P2
2023/09/13 04:00:47;;;;;;;0.70;0.53;;;;;;;;;;5837721;22;20856;-74
2023/09/13 04:03:16;;;;;;;0.60;0.20;;;;;;;;;;4978443;28;20486;-76
2023/09/13 04:05:44;;;;;;;0.60;0.20;;;20.40;99.90;;;;;;4977902;28;20476;-76
2023/09/13 04:08:12;;;;;;;0.70;0.30;;;20.30;99.90;;;;;;4994246;28;20457;-75
2023/09/13 04:10:40;;;;;;;0.90;0.60;;;20.20;99.90;;;;;;4991194;28;21075;-75
2023/09/13 04:13:08;;;;;;;2.60;0.70;;;20.20;99.90;;;;;;4990320;28;20444;-77
2023/09/13 04:15:36;;;;;;;0.60;0.20;;;20.00;99.90;;;;;;5035214;23;20492;-71
2023/09/13 04:18:08;;;;;;;0.70;0.30;;;20.00;99.90;;;;;;4999695;28;20475;-71
2023/09/13 04:20:35;;;;;;;0.60;0.20;;;19.80;99.90;;;;;;4993729;28;20532;-71
2023/09/13 04:23:04;;;;;;;1.23;0.63;;;19.90;99.90;;;;;;4993313;28;20495;-72
2023/09/13 04:25:31;;;;;;;0.60;0.20;;;19.70;99.90;;;;;;4987683;28;20553;-71
2023/09/13 04:27:59;;;;;;;0.80;0.67;;;19.70;99.90;;;;;;4979498;28;20462;-71
2023/09/13 04:30:27;;;;;;;0.60;0.20;;;19.60;99.90;;;;;;4974231;28;20445;-72
2023/09/13 04:32:55;;;;;;;0.90;0.20;;;19.50;99.90;;;;;;4974015;28;20926;-72
2023/09/13 04:35:24;;;;;;;0.60;0.10;;;19.60;99.90;;;;;;4973471;28;20465;-72
2023/09/13 04:37:53;;;;;;;9.50;6.03;;;19.60;99.90;;;;;;4974153;28;20461;-72
2023/09/13 04:40:21;;;;;;;0.60;0.20;;;19.70;99.90;;;;;;4983824;28;20537;-72
2023/09/13 04:42:55;;;;;;;1.73;0.73;;;19.60;99.90;;;;;;4973844;28;20489;-72
2023/09/13 04:45:23;;;;;;;0.60;0.20;;;19.60;99.90;;;;;;4973421;28;20557;-71
2023/09/13 04:47:51;;;;;;;0.60;0.10;;;;;;;;;;4974056;28;20757;-72
2023/09/13 04:50:19;;;;;;;0.70;0.23;;;19.80;99.90;;;;;;4973786;28;20449;-72
2023/09/13 04:52:48;;;;;;;0.60;0.20;;;19.70;99.90;;;;;;4993064;28;20441;-72
2023/09/13 04:55:18;;;;;;;0.60;0.10;;;19.80;99.90;;;;;;4976946;28;20556;-72
2023/09/13 04:57:47;;;;;;;0.60;0.10;;;19.90;99.90;;;;;;4973530;28;20445;-72
2023/09/13 05:00:16;;;;;;;0.60;0.20;;;19.90;99.90;;;;;;4973688;28;20450;-72
2023/09/13 05:02:44;;;;;;;6.10;3.90;;;20.00;99.90;;;;;;4984980;28;20762;-72
2023/09/13 05:05:12;;;;;;;0.60;0.40;;;20.00;99.90;;;;;;4982466;28;20987;-73
2023/09/13 05:07:40;;;;;;;0.60;0.30;;;20.00;99.90;;;;;;4984290;28;20504;-73
2023/09/13 05:10:09;;;;;;;0.60;0.10;;;19.90;99.90;;;;;;4983375;28;20859;-72
2023/09/13 05:12:37;;;;;;;2.63;1.40;;;19.70;99.90;;;;;;4981627;28;21044;-72
2023/09/13 05:15:06;;;;;;;0.60;0.20;;;19.70;99.90;;;;;;4986693;28;20476;-72
2023/09/13 05:17:34;;;;;;;0.80;0.50;;;19.70;99.90;;;;;;4991654;28;20463;-72
2023/09/13 05:20:02;;;;;;;0.60;0.10;;;19.60;99.90;;;;;;4982688;28;20459;-71
2023/09/13 05:22:30;;;;;;;0.60;0.20;;;19.50;99.90;;;;;;4981839;28;20482;-73
2023/09/13 05:24:58;;;;;;;0.80;0.73;;;19.60;99.90;;;;;;4987675;28;20568;-73
2023/09/13 05:27:27;;;;;;;1.10;0.57;;;19.70;99.90;;;;;;4992080;28;20456;-71
2023/09/13 05:29:55;;;;;;;0.60;0.10;;;19.60;99.90;;;;;;4992041;28;20449;-72
2023/09/13 05:32:23;;;;;;;0.60;0.10;;;19.80;99.90;;;;;;4989624;28;20468;-72
2023/09/13 05:34:51;;;;;;;0.80;0.20;;;19.80;99.90;;;;;;4986625;28;20453;-71
2023/09/13 05:37:19;;;;;;;0.70;0.37;;;19.90;99.90;;;;;;4986986;28;20544;-71
2023/09/13 05:39:47;;;;;;;0.60;0.10;;;19.80;99.90;;;;;;4991760;28;20449;-71
2023/09/13 05:42:15;;;;;;;0.60;0.20;;;19.90;99.90;;;;;;4989769;28;20447;-72
2023/09/13 05:44:44;;;;;;;0.60;0.10;;;19.90;99.90;;;;;;4991038;28;20535;-73
2023/09/13 05:47:12;;;;;;;0.60;0.10;;;;;;;;;;4990367;28;20456;-74
2023/09/13 05:49:41;;;;;;;0.60;0.10;;;;;;;;;;4991957;28;20479;-73
2023/09/13 05:52:08;;;;;;;0.70;0.37;;;20.30;99.90;;;;;;4991793;28;20908;-73
2023/09/13 05:54:36;;;;;;;0.60;0.10;;;20.30;99.90;;;;;;4991326;28;20499;-72
2023/09/13 05:57:06;;;;;;;0.60;0.10;;;20.50;99.90;;;;;;4991447;28;20467;-72
2023/09/13 05:59:39;;;;;;;0.60;0.10;;;20.50;99.90;;;;;;4991848;28;20465;-72
2023/09/13 06:02:08;;;;;;;0.60;0.20;;;20.60;99.90;;;;;;4991632;28;21114;-72
2023/09/13 06:04:38;;;;;;;0.77;0.17;;;;;;;;;;4989066;28;20511;-72
2023/09/13 06:07:06;;;;;;;0.60;0.10;;;20.70;99.90;;;;;;4986366;28;20472;-72
2023/09/13 06:09:33;;;;;;;0.60;0.20;;;20.80;99.90;;;;;;4991543;28;20456;-70
2023/09/13 06:12:02;;;;;;;0.60;0.10;;;;;;;;;;4991645;28;20481;-70
2023/09/13 06:14:33;;;;;;;0.60;0.30;;;21.10;99.90;;;;;;4991634;28;20472;-69
2023/09/13 06:17:00;;;;;;;0.60;0.20;;;21.20;99.90;;;;;;4990787;28;20551;-69
2023/09/13 06:19:29;;;;;;;0.60;0.10;;;21.40;99.90;;;;;;4991317;28;20453;-70
2023/09/13 06:21:58;;;;;;;1.23;0.30;;;;;;;;;;4994471;28;20445;-70
2023/09/13 06:24:30;;;;;;;0.60;0.20;;;21.30;99.90;;;;;;4990833;28;20496;-69
2023/09/13 06:26:58;;;;;;;1.53;0.87;;;;;;;;;;4994800;28;20500;-68
2023/09/13 06:29:27;;;;;;;1.57;0.87;;;;;;;;;;4994575;28;20471;-69
2023/09/13 06:31:55;;;;;;;0.80;0.53;;;21.00;99.90;;;;;;4991719;28;20460;-68
2023/09/13 06:34:34;;;;;;;0.60;0.10;;;20.60;99.90;;;;;;4994331;28;20932;-69
2023/09/13 06:37:03;;;;;;;0.60;0.10;;;;;;;;;;4994761;28;20460;-69
2023/09/13 06:39:34;;;;;;;0.80;0.47;;;20.30;99.90;;;;;;4994434;28;20480;-68
2023/09/13 06:42:03;;;;;;;1.03;0.57;;;20.10;99.90;;;;;;4994682;28;20448;-69
2023/09/13 06:44:50;;;;;;;0.80;0.20;;;20.30;99.90;;;;;;4993969;28;20479;-69
2023/09/13 06:47:30;;;;;;;0.60;0.10;;;20.40;99.90;;;;;;4984235;28;20781;-70
2023/09/13 06:50:00;;;;;;;0.60;0.10;;;20.50;99.90;;;;;;4994705;28;20471;-69
2023/09/13 06:52:32;;;;;;;0.70;0.30;;;20.60;99.90;;;;;;4992656;28;20449;-69
2023/09/13 06:55:04;;;;;;;0.60;0.20;;;20.60;99.90;;;;;;4983245;28;20469;-69
2023/09/13 06:57:34;;;;;;;0.60;0.30;;;20.70;99.90;;;;;;4982346;28;20825;-69
2023/09/13 07:00:08;;;;;;;1.63;1.53;;;20.70;99.90;;;;;;4993905;28;20611;-68
2023/09/13 07:02:39;;;;;;;0.60;0.20;;;20.70;99.90;;;;;;4993646;28;20448;-69
2023/09/13 07:05:12;;;;;;;0.60;0.10;;;20.70;99.90;;;;;;4987268;28;20489;-69
2023/09/13 07:07:43;;;;;;;0.60;0.10;;;20.90;99.90;;;;;;4985290;28;20528;-69
2023/09/13 07:10:12;;;;;;;0.80;0.30;;;21.00;99.90;;;;;;4993268;28;20483;-70
2023/09/13 07:12:40;;;;;;;0.60;0.10;;;;;;;;;;4994476;28;20507;-70
2023/09/13 07:15:09;;;;;;;0.60;0.30;;;20.70;99.90;;;;;;4993215;28;21041;-69
2023/09/13 07:17:36;;;;;;;1.33;1.07;;;20.70;99.90;;;;;;4994625;28;20448;-69
2023/09/13 07:20:06;;;;;;;2.17;1.10;;;20.60;99.90;;;;;;4994540;28;21052;-69
2023/09/13 07:22:35;;;;;;;1.63;1.33;;;20.50;99.90;;;;;;4993881;28;20460;-70
2023/09/13 07:25:04;;;;;;;0.70;0.30;;;20.70;99.90;;;;;;4993901;28;20487;-70
2023/09/13 07:27:38;;;;;;;1.03;0.60;;;20.70;99.90;;;;;;4994816;28;20440;-71
2023/09/13 07:30:13;;;;;;;0.63;0.37;;;20.80;99.90;;;;;;4995077;28;20525;-70
2023/09/13 07:32:41;;;;;;;0.60;0.20;;;20.80;99.90;;;;;;4989705;28;20445;-70
2023/09/13 07:35:10;;;;;;;2.63;2.43;;;;;;;;;;4993668;28;20460;-70
2023/09/13 07:37:39;;;;;;;1.40;0.63;;;20.90;99.90;;;;;;4994127;28;20518;-69
2023/09/13 07:40:08;;;;;;;0.60;0.20;;;21.00;99.90;;;;;;4988250;28;20892;-70
2023/09/13 07:42:36;;;;;;;0.60;0.10;;;21.10;99.90;;;;;;4989912;28;20454;-71
2023/09/13 07:45:04;;;;;;;1.90;1.10;;;21.20;99.90;;;;;;4973513;28;20496;-70
2023/09/13 07:47:33;;;;;;;0.60;0.10;;;;;;;;;;4974151;28;21001;-71
2023/09/13 07:50:02;;;;;;;0.70;0.40;;;;;;;;;;4974280;28;20457;-72
2023/09/13 07:52:30;;;;;;;0.60;0.20;;;;;;;;;;4974610;28;20450;-72
2023/09/13 07:55:19;;;;;;;1.07;0.97;;;21.60;99.90;;;;;;4983152;28;20485;-71
2023/09/13 07:57:47;;;;;;;0.60;0.20;;;21.60;99.90;;;;;;4984363;28;20539;-72
2023/09/13 08:00:15;;;;;;;0.60;0.10;;;21.70;99.90;;;;;;4983992;28;20461;-71
2023/09/13 08:02:44;;;;;;;0.60;0.20;;;;;;;;;;4974016;28;20979;-71
2023/09/13 08:05:12;;;;;;;0.90;0.70;;;21.60;99.90;;;;;;4973172;28;20485;-70
2023/09/13 08:07:40;;;;;;;1.33;0.50;;;;;;;;;;4974105;28;20826;-71
2023/09/13 08:10:08;;;;;;;0.80;0.60;;;21.60;99.90;;;;;;4973365;28;20458;-71
2023/09/13 08:12:41;;;;;;;2.57;2.00;;;21.60;99.90;;;;;;4982128;28;20459;-70
2023/09/13 08:15:10;;;;;;;3.00;2.10;;;21.60;99.90;;;;;;4992361;28;21010;-70
2023/09/13 08:17:40;;;;;;;1.13;1.03;;;;;;;;;;4992551;28;21050;-71
2023/09/13 08:20:09;;;;;;;3.13;1.30;;;21.40;99.90;;;;;;4988231;28;21132;-69
2023/09/13 08:22:40;;;;;;;1.20;1.10;;;21.40;99.90;;;;;;4980173;28;20443;-70
2023/09/13 08:25:08;;;;;;;0.60;0.10;;;21.40;99.90;;;;;;4980528;28;21022;-69
2023/09/13 08:27:36;;;;;;;1.13;1.03;;;21.50;99.90;;;;;;4982339;28;20453;-70
2023/09/13 08:30:08;;;;;;;0.80;0.40;;;21.60;99.90;;;;;;4978530;28;20460;-70
2023/09/13 08:32:37;;;;;;;1.03;0.77;;;21.60;99.90;;;;;;4981057;28;20533;-70
2023/09/13 08:35:05;;;;;;;0.63;0.37;;;21.60;99.90;;;;;;4981641;28;20829;-70
2023/09/13 08:37:33;;;;;;;0.60;0.20;;;21.70;99.90;;;;;;4982044;28;20451;-70
2023/09/13 08:40:01;;;;;;;0.60;0.23;;;21.70;99.90;;;;;;4983823;28;20467;-70
2023/09/13 08:42:30;;;;;;;0.60;0.10;;;21.80;99.90;;;;;;4984276;28;20477;-69
2023/09/13 08:45:00;;;;;;;3.03;2.33;;;21.80;99.90;;;;;;4982408;28;20518;-69
2023/09/13 08:47:31;;;;;;;1.00;0.50;;;21.80;99.90;;;;;;4983415;28;20935;-68
2023/09/13 08:50:19;;;;;;;0.60;0.20;;;21.50;99.90;;;;;;4979777;28;21014;-71
2023/09/13 08:52:48;;;;;;;0.60;0.10;;;21.60;99.90;;;;;;4981531;28;20449;-71
2023/09/13 08:55:16;;;;;;;0.60;0.10;;;21.80;99.90;;;;;;4982539;28;20466;-71
2023/09/13 08:57:47;;;;;;;0.60;0.10;;;;;;;;;;4982995;28;20500;-71
2023/09/13 09:00:15;;;;;;;1.70;1.13;;;21.70;99.90;;;;;;4985306;28;20995;-71
2023/09/13 09:02:47;;;;;;;3.57;1.70;;;21.90;99.90;;;;;;4981448;28;20453;-71
2023/09/13 09:05:17;;;;;;;0.60;0.10;;;21.90;99.90;;;;;;4985053;28;20512;-71
2023/09/13 09:07:47;;;;;;;0.60;0.10;;;22.00;99.90;;;;;;4986560;28;20445;-72
2023/09/13 09:10:16;;;;;;;1.67;0.60;;;22.10;99.90;;;;;;4981887;28;21113;-70
2023/09/13 09:12:48;;;;;;;1.90;1.23;;;22.10;99.90;;;;;;4972743;28;20450;-70
2023/09/13 09:15:19;;;;;;;0.60;0.10;;;22.00;99.90;;;;;;4971280;28;20465;-70
2023/09/13 09:17:50;;;;;;;0.60;0.20;;;22.20;99.90;;;;;;4972734;28;21039;-70
2023/09/13 09:20:19;;;;;;;0.60;0.20;;;22.30;99.90;;;;;;4973064;28;20457;-70
2023/09/13 09:22:47;;;;;;;0.60;0.10;;;22.30;99.90;;;;;;4972464;28;20477;-71
2023/09/13 09:25:15;;;;;;;0.60;0.10;;;22.40;99.90;;;;;;4972270;28;20489;-71
2023/09/13 09:27:43;;;;;;;0.60;0.20;;;22.50;99.90;;;;;;4972082;28;20794;-71
2023/09/13 09:30:14;;;;;;;0.80;0.73;;;22.50;99.90;;;;;;4972816;28;20453;-70
2023/09/13 09:32:44;;;;;;;0.60;0.20;;;22.60;99.90;;;;;;4972315;28;20485;-71
2023/09/13 09:35:15;;;;;;;0.60;0.10;;;22.70;99.90;;;;;;4971903;28;20846;-71
2023/09/13 09:37:44;;;;;;;0.60;0.10;;;22.70;99.90;;;;;;4981904;28;20500;-71
2023/09/13 09:40:14;;;;;;;0.60;0.20;;;22.80;99.90;;;;;;4984919;28;20960;-71
2023/09/13 09:42:42;;;;;;;0.60;0.10;;;;;;;;;;4991035;28;20540;-72
2023/09/13 09:45:11;;;;;;;0.60;0.10;;;22.80;99.90;;;;;;4990866;28;20523;-71
2023/09/13 09:47:41;;;;;;;0.60;0.10;;;22.80;99.90;;;;;;4991494;28;20536;-71
2023/09/13 09:50:13;;;;;;;0.70;0.40;;;22.80;99.90;;;;;;4990755;28;20460;-71
2023/09/13 09:52:42;;;;;;;0.60;0.10;;;22.80;99.90;;;;;;4982121;28;20967;-71
2023/09/13 09:55:15;;;;;;;0.60;0.10;;;22.80;99.90;;;;;;4979708;28;20528;-70
2023/09/13 09:57:46;;;;;;;0.60;0.20;;;22.70;99.90;;;;;;4971679;28;20952;-70
2023/09/13 10:00:15;;;;;;;0.80;0.63;;;22.70;99.90;;;;;;4979642;28;20452;-71
2023/09/13 10:02:45;;;;;;;0.60;0.10;;;22.80;99.90;;;;;;4978100;28;20468;-71
2023/09/13 10:05:16;;;;;;;0.60;0.10;;;22.90;99.90;;;;;;4977469;28;20489;-71
2023/09/13 10:07:54;;;;;;;0.60;0.10;;;22.90;99.90;;;;;;4983420;28;20445;-71
2023/09/13 10:10:30;;;;;;;0.60;0.20;;;22.80;99.90;;;;;;4982738;28;20536;-71
2023/09/13 10:12:58;;;;;;;0.60;0.10;;;;;;;;;;4983230;28;20465;-71
2023/09/13 10:15:26;;;;;;;0.60;0.10;;;23.00;99.90;;;;;;4983641;28;20465;-72
2023/09/13 10:17:55;;;;;;;0.60;0.20;;;23.10;99.90;;;;;;4989986;28;20536;-71
2023/09/13 10:20:25;;;;;;;0.60;0.10;;;23.20;99.90;;;;;;4990812;28;20504;-71
2023/09/13 10:22:57;;;;;;;0.60;0.20;;;23.30;99.90;;;;;;4990839;28;20532;-71
2023/09/13 10:25:30;;;;;;;0.60;0.10;;;23.40;99.90;;;;;;4989484;28;20500;-72
2023/09/13 10:28:01;;;;;;;0.60;0.23;;;23.50;99.90;;;;;;4990450;28;20449;-70
2023/09/13 10:30:35;;;;;;;1.13;1.03;;;23.60;99.90;;;;;;4977592;28;20445;-71
2023/09/13 10:33:07;;;;;;;0.60;0.10;;;23.60;99.90;;;;;;4978415;28;20504;-70
2023/09/13 10:35:41;;;;;;;1.33;0.80;;;23.70;99.90;;;;;;4982735;28;20465;-71
2023/09/13 10:38:17;;;;;;;1.33;0.93;;;23.70;99.90;;;;;;4981399;28;20443;-69
2023/09/13 10:40:51;;;;;;;0.60;0.10;;;23.80;99.90;;;;;;4980353;28;20441;-71
2023/09/13 10:43:22;;;;;;;0.60;0.10;;;23.80;99.90;;;;;;4982037;28;20441;-71
2023/09/13 10:45:50;;;;;;;0.60;0.10;;;23.70;99.90;;;;;;4982963;28;20477;-70
2023/09/13 10:48:19;;;;;;;0.60;0.10;;;23.70;99.90;;;;;;4982387;28;20443;-70
2023/09/13 10:50:49;;;;;;;0.60;0.20;;;23.70;99.90;;;;;;4985644;28;20472;-70
2023/09/13 10:53:19;;;;;;;0.60;0.20;;;23.70;99.90;;;;;;4981612;28;21010;-70
2023/09/13 10:55:47;;;;;;;0.60;0.20;;;23.60;99.90;;;;;;4987573;28;20473;-69
2023/09/13 10:58:20;;;;;;;0.60;0.10;;;23.60;99.90;;;;;;4990408;28;20966;-72
2023/09/13 11:00:50;;;;;;;0.60;0.10;;;23.60;99.90;;;;;;4990447;28;20453;-71
2023/09/13 11:03:18;;;;;;;0.60;0.20;;;;;;;;;;4988795;28;20472;-70
2023/09/13 11:05:50;;;;;;;0.60;0.10;;;23.60;99.90;;;;;;4989447;28;20489;-70
2023/09/13 11:08:33;;;;;;;0.60;0.20;;;23.60;99.90;;;;;;4986693;28;20441;-70
2023/09/13 11:11:09;;;;;;;0.60;0.10;;;23.70;99.90;;;;;;4975264;28;20500;-70
2023/09/13 11:13:38;;;;;;;0.60;0.10;;;23.80;99.90;;;;;;4974612;28;20448;-70
2023/09/13 11:16:07;;;;;;;0.60;0.10;;;;;;;;;;4980280;28;20519;-71
2023/09/13 11:18:46;;;;;;;0.60;0.10;;;23.70;99.90;;;;;;4992041;28;20444;-70
2023/09/13 11:21:19;;;;;;;0.60;0.10;;;23.70;99.90;;;;;;4993694;28;20516;-69
2023/09/13 11:23:52;;;;;;;0.60;0.10;;;23.70;99.90;;;;;;4994103;28;20489;-69
2023/09/13 11:26:44;;;;;;;0.60;0.13;;;23.70;99.90;;;;;;4994096;28;20478;-70
2023/09/13 11:29:23;;;;;;;0.60;0.20;;;23.70;99.90;;;;;;4994025;28;20790;-71
2023/09/13 11:31:58;;;;;;;0.60;0.17;;;23.70;99.90;;;;;;4993936;28;20458;-71
2023/09/13 11:34:29;;;;;;;0.60;0.10;;;;;;;;;;4994048;28;20442;-71
2023/09/13 11:37:00;;;;;;;0.60;0.10;;;23.70;99.90;;;;;;4977416;28;20896;-71
2023/09/13 11:39:29;;;;;;;0.60;0.10;;;23.80;99.90;;;;;;4974690;28;20884;-70
2023/09/13 11:41:58;;;;;;;0.60;0.10;;;23.90;99.90;;;;;;4976752;28;20477;-70
2023/09/13 11:44:27;;;;;;;0.60;0.10;;;23.90;99.90;;;;;;4979947;28;20458;-71
2023/09/13 11:47:02;;;;;;;0.60;0.20;;;23.70;99.90;;;;;;4983816;28;20482;-70
2023/09/13 11:49:31;;;;;;;2.07;1.30;;;23.30;99.90;;;;;;5026869;23;20613;-71
2023/09/13 11:52:05;;;;;;;0.60;0.10;;;23.70;99.90;;;;;;4995094;28;20448;-72
2023/09/13 11:57:51;;;;;;;0.60;0.10;;;23.90;99.90;;;;;;5090202;28;20596;-72
2023/09/13 12:00:25;;;;;;;2.93;1.03;;;23.90;99.90;;;;;;5059170;28;20532;-72
2023/09/13 12:02:55;;;;;;;0.60;0.20;;;24.00;99.90;;;;;;5061798;28;20455;-72
2023/09/13 12:05:27;;;;;;;0.70;0.40;;;24.10;99.90;;;;;;5060449;28;20486;-73
2023/09/13 12:08:22;;;;;;;0.60;0.10;;;24.10;99.90;;;;;;5061708;28;20445;-72
2023/09/13 12:10:54;;;;;;;0.60;0.10;;;24.20;99.90;;;;;;5060020;28;20524;-72
2023/09/13 12:13:42;;;;;;;0.60;0.10;;;24.30;99.90;;;;;;5063808;28;20445;-72
2023/09/13 12:16:30;;;;;;;0.70;0.13;;;24.30;99.90;;;;;;5047002;28;20943;-73
2023/09/13 12:18:59;;;;;;;0.63;0.20;;;24.40;99.90;;;;;;5053844;28;20566;-70
2023/09/13 12:21:27;;;;;;;0.70;0.20;;;24.50;99.90;;;;;;5048886;28;20437;-73
2023/09/13 12:23:55;;;;;;;0.70;0.20;;;;;;;;;;5051587;28;20479;-73
2023/09/13 12:26:24;;;;;;;0.70;0.20;;;24.70;99.90;;;;;;5048999;28;20513;-71
2023/09/13 12:28:54;;;;;;;0.70;0.20;;;24.80;99.90;;;;;;5048980;28;20492;-73
2023/09/13 12:31:24;;;;;;;0.70;0.20;;;24.70;99.90;;;;;;5048792;28;20492;-70
2023/09/13 12:33:52;;;;;;;0.70;0.10;;;24.70;99.90;;;;;;5048290;28;20548;-72
2023/09/13 12:36:21;;;;;;;0.70;0.10;;;24.60;99.90;;;;;;5047823;28;20956;-72
2023/09/13 12:38:50;;;;;;;0.60;0.10;;;24.50;99.90;;;;;;5047708;28;20465;-73
2023/09/13 12:41:19;;;;;;;0.70;0.20;;;24.50;99.90;;;;;;5047194;28;20457;-71
2023/09/13 12:43:50;;;;;;;0.67;0.20;;;24.50;99.90;;;;;;5047424;28;20453;-74
2023/09/13 12:46:20;;;;;;;0.70;0.20;;;24.40;99.90;;;;;;5047785;28;20523;-73
2023/09/13 12:48:50;;;;;;;0.70;0.10;;;24.40;99.90;;;;;;5048252;28;20834;-72
2023/09/13 12:51:22;;;;;;;0.70;0.30;;;24.50;99.90;;;;;;5051274;28;20462;-73
2023/09/13 12:53:51;;;;;;;0.70;0.20;;;24.60;99.90;;;;;;5052056;28;20448;-72
2023/09/13 12:56:20;;;;;;;0.70;0.20;;;24.60;98.90;;;;;;5051547;28;20940;-72
2023/09/13 12:58:49;;;;;;;1.23;0.73;;;24.60;99.70;;;;;;5036260;28;20519;-72
2023/09/13 13:01:19;;;;;;;0.90;0.50;;;24.20;96.90;;;;;;5047233;28;20596;-73
2023/09/13 13:03:57;;;;;;;1.17;0.70;;;;;;;;;;5046631;28;20910;-73
2023/09/13 13:06:25;;;;;;;0.80;0.30;;;24.00;98.20;;;;;;5046920;28;20489;-73
2023/09/13 13:09:04;;;;;;;0.70;0.33;;;24.00;97.80;;;;;;5032982;28;20477;-72
2023/09/13 13:11:36;;;;;;;0.60;0.10;;;24.00;98.90;;;;;;5033704;28;20519;-71
2023/09/13 13:14:12;;;;;;;0.90;0.30;;;23.90;96.80;;;;;;5033444;28;21056;-72
2023/09/13 13:16:42;;;;;;;0.60;0.10;;;24.00;98.00;;;;;;5033504;28;20485;-72
2023/09/13 13:19:14;;;;;;;0.70;0.23;;;;;;;;;;5026129;28;20470;-73
2023/09/13 13:21:52;;;;;;;0.70;0.30;;;23.90;95.30;;;;;;5033279;28;20453;-72
2023/09/13 13:24:23;;;;;;;0.60;0.10;;;23.90;99.90;;;;;;5033177;28;20489;-72
2023/09/13 13:26:51;;;;;;;0.60;0.20;;;;;;;;;;5033038;28;20492;-72
2023/09/13 13:29:19;;;;;;;0.80;0.40;;;24.00;97.60;;;;;;5033066;28;20471;-71
2023/09/13 13:31:49;;;;;;;0.60;0.20;;;24.00;97.70;;;;;;5032435;28;20480;-73
2023/09/13 13:34:17;;;;;;;0.60;0.10;;;;;;;;;;5033507;28;20452;-71
2023/09/13 13:36:45;;;;;;;0.60;0.10;;;24.20;99.90;;;;;;5033369;28;20508;-71
2023/09/13 13:39:15;;;;;;;0.60;0.20;;;24.20;99.90;;;;;;5025625;28;20465;-74
2023/09/13 13:41:44;;;;;;;0.60;0.10;;;24.30;99.30;;;;;;5032902;28;20508;-72
2023/09/13 13:44:14;;;;;;;0.60;0.20;;;24.30;95.90;;;;;;5024822;28;20446;-71
2023/09/13 13:46:42;;;;;;;0.60;0.10;;;24.30;97.10;;;;;;5033161;28;21042;-73
2023/09/13 13:49:16;;;;;;;0.60;0.17;;;24.40;98.10;;;;;;5032882;28;20477;-72
2023/09/13 13:51:44;;;;;;;0.60;0.10;;;24.50;97.30;;;;;;5032431;28;20473;-72
2023/09/13 13:54:12;;;;;;;0.67;0.10;;;;;;;;;;5024554;28;20525;-72
2023/09/13 13:56:42;;;;;;;0.70;0.40;;;24.70;97.30;;;;;;5032322;28;20442;-73
2023/09/13 13:59:10;;;;;;;0.60;0.10;;;24.80;96.10;;;;;;5032657;28;20552;-72
2023/09/13 14:01:39;;;;;;;0.60;0.10;;;24.80;95.50;;;;;;5032514;28;20485;-73
2023/09/13 14:04:07;;;;;;;0.70;0.17;;;;;;;;;;5033228;28;20577;-73
2023/09/13 14:06:38;;;;;;;0.83;0.30;;;24.50;90.90;;;;;;5032420;28;20949;-73
2023/09/13 14:09:06;;;;;;;0.60;0.17;;;24.50;93.80;;;;;;5032577;28;20469;-72
2023/09/13 14:11:34;;;;;;;0.70;0.10;;;24.50;94.80;;;;;;5032820;28;20543;-72
2023/09/13 14:14:02;;;;;;;0.70;0.10;;;;;;;;;;5032240;28;20949;-73
2023/09/13 14:16:30;;;;;;;0.60;0.10;;;24.50;91.60;;;;;;5032626;28;20537;-71
2023/09/13 14:18:58;;;;;;;0.70;0.30;;;24.50;92.30;;;;;;5031617;28;20470;-71
2023/09/13 14:21:26;;;;;;;0.87;0.67;;;24.60;98.10;;;;;;5032022;28;20545;-72
2023/09/13 14:23:57;;;;;;;0.70;0.20;;;24.60;98.60;;;;;;5032576;28;20488;-72
2023/09/13 14:26:25;;;;;;;0.70;0.30;;;;;;;;;;5032484;28;20556;-71
2023/09/13 14:28:53;;;;;;;0.63;0.10;;;24.60;95.60;;;;;;5032095;28;21014;-73
2023/09/13 14:31:21;;;;;;;0.70;0.20;;;24.70;96.60;;;;;;5032080;28;20476;-71
2023/09/13 14:33:50;;;;;;;0.67;0.10;;;24.50;94.70;;;;;;5029688;28;20463;-71
2023/09/13 14:36:18;;;;;;;2.17;0.77;;;;;;;;;;5024472;28;20459;-70
2023/09/13 14:38:46;;;;;;;3.30;1.00;;;24.50;84.00;;;;;;5032107;28;20461;-71
2023/09/13 14:41:15;;;;;;;0.70;0.10;;;24.30;76.90;;;;;;5028933;28;20541;-73
2023/09/13 14:43:43;;;;;;;0.70;0.10;;;24.30;81.40;;;;;;5036362;28;20439;-71
2023/09/13 14:46:11;;;;;;;0.70;0.20;;;24.40;81.30;;;;;;5035216;28;20433;-72
2023/09/13 14:48:39;;;;;;;0.70;0.20;;;24.50;84.00;;;;;;5035762;28;20486;-71
2023/09/13 14:51:07;;;;;;;0.63;0.10;;;24.50;84.60;;;;;;5031837;28;20477;-71
2023/09/13 14:53:36;;;;;;;0.63;0.20;;;24.60;88.00;;;;;;5031712;28;20449;-71
2023/09/13 14:56:04;;;;;;;0.70;0.10;;;;;;;;;;5031890;28;20492;-73
2023/09/13 14:58:33;;;;;;;0.67;0.10;;;24.70;83.90;;;;;;5031711;28;20562;-70
2023/09/13 15:01:03;;;;;;;0.70;0.20;;;;;;;;;;5031190;28;20458;-71
2023/09/13 15:03:34;;;;;;;0.70;0.20;;;24.70;83.10;;;;;;5032083;28;20446;-73
2023/09/13 15:06:05;;;;;;;0.70;0.20;;;;;;;;;;5031881;28;20527;-73
2023/09/13 15:08:33;;;;;;;0.60;0.20;;;;;;;;;;5032080;28;20486;-72
2023/09/13 15:11:01;;;;;;;0.70;0.47;;;24.60;84.70;;;;;;5031199;28;20526;-73
2023/09/13 15:13:29;;;;;;;0.60;0.10;;;24.50;84.80;;;;;;5032404;28;20518;-70
2023/09/13 15:15:58;;;;;;;0.70;0.10;;;24.60;85.20;;;;;;5039551;28;20523;-72
2023/09/13 15:18:26;;;;;;;0.60;0.10;;;24.50;84.90;;;;;;5041013;28;20461;-72
2023/09/13 15:20:54;;;;;;;0.70;0.20;;;24.50;83.00;;;;;;5039645;28;20512;-72
2023/09/13 15:23:22;;;;;;;0.60;0.20;;;24.50;84.00;;;;;;5031665;28;20443;-71
2023/09/13 15:25:50;;;;;;;0.67;0.20;;;;;;;;;;5031118;28;20516;-72
2023/09/13 15:28:20;;;;;;;0.70;0.20;;;;;;;;;;5023329;28;20489;-70
2023/09/13 15:30:50;;;;;;;0.60;0.20;;;24.40;82.80;;;;;;5031413;28;20959;-71
2023/09/13 15:33:19;;;;;;;0.60;0.10;;;24.50;82.90;;;;;;5031316;28;20453;-71
2023/09/13 15:35:47;;;;;;;0.70;0.20;;;24.50;85.10;;;;;;5030577;28;20443;-73
2023/09/13 15:38:16;;;;;;;1.00;0.30;;;;;;;;;;5031063;28;20530;-71
2023/09/13 15:40:44;;;;;;;0.60;0.10;;;;;;;;;;5031172;28;20964;-72
2023/09/13 15:43:12;;;;;;;0.70;0.10;;;24.40;86.00;;;;;;5025900;28;21113;-73
2023/09/13 15:45:40;;;;;;;0.67;0.10;;;;;;;;;;5029914;28;20454;-75
2023/09/13 15:48:08;;;;;;;0.80;0.20;;;24.40;86.70;;;;;;5030710;28;20494;-73
2023/09/13 15:50:37;;;;;;;0.60;0.10;;;24.40;86.30;;;;;;5030997;28;20552;-75
2023/09/13 15:53:06;;;;;;;0.60;0.20;;;;;;;;;;5031835;28;20458;-77
2023/09/13 15:55:36;;;;;;;0.70;0.20;;;24.30;86.90;;;;;;5031877;28;20482;-74
2023/09/13 15:58:04;;;;;;;0.70;0.23;;;24.30;87.00;;;;;;5032472;28;20485;-75
2023/09/13 16:00:33;;;;;;;0.70;0.20;;;24.30;88.00;;;;;;5031439;28;20456;-76
2023/09/13 16:03:02;;;;;;;0.70;0.40;;;;;;;;;;5031859;28;20912;-75
2023/09/13 16:05:30;;;;;;;0.60;0.13;;;24.20;87.90;;;;;;5032725;28;20450;-74
2023/09/13 16:08:00;;;;;;;0.67;0.10;;;;;;;;;;5037755;28;20484;-75
2023/09/13 16:10:28;;;;;;;0.60;0.10;;;;;;;;;;5024351;28;20541;-77
2023/09/13 16:12:56;;;;;;;0.60;0.10;;;;;;;;;;5030654;28;20458;-74
2023/09/13 16:15:25;;;;;;;0.70;0.10;;;;;;;;;;5033047;28;20454;-76
2023/09/13 16:17:53;;;;;;;0.60;0.10;;;;;;;;;;5031388;28;20441;-74
2023/09/13 16:20:22;;;;;;;0.60;0.10;;;24.10;88.40;;;;;;5035679;28;20442;-74
2023/09/13 16:22:50;;;;;;;0.60;0.10;;;;;;;;;;5031247;28;20449;-74
2023/09/13 16:25:20;;;;;;;0.60;0.30;;;24.00;88.40;;;;;;5031720;28;20444;-76
2023/09/13 16:27:48;;;;;;;0.60;0.10;;;24.00;88.30;;;;;;5031819;28;20490;-73
2023/09/13 16:30:16;;;;;;;0.60;0.10;;;24.00;90.50;;;;;;5037476;28;20470;-74
2023/09/13 16:32:45;;;;;;;0.70;0.10;;;24.00;88.30;;;;;;5030744;28;20503;-75
2023/09/13 16:35:14;;;;;;;0.60;0.10;;;23.90;83.00;;;;;;5031341;28;20900;-76
2023/09/13 16:37:41;;;;;;;0.60;0.10;;;23.90;84.10;;;;;;5040619;28;20478;-75
2023/09/13 16:40:10;;;;;;;0.60;0.10;;;23.90;85.90;;;;;;5048911;28;20522;-74
2023/09/13 16:42:42;;;;;;;0.60;0.10;;;23.90;86.50;;;;;;5031473;28;20447;-75
2023/09/13 16:45:12;;;;;;;0.67;0.13;;;23.90;85.90;;;;;;5034395;28;20485;-73
2023/09/13 16:47:40;;;;;;;0.60;0.20;;;23.90;85.50;;;;;;5035704;28;20523;-77
2023/09/13 16:50:11;;;;;;;0.60;0.20;;;23.90;84.50;;;;;;5035791;28;20468;-77
2023/09/13 16:52:39;;;;;;;0.60;0.10;;;23.80;83.50;;;;;;5033373;28;20461;-73
2023/09/13 16:55:08;;;;;;;1.33;1.23;;;23.90;83.90;;;;;;5045370;28;20535;-79
2023/09/13 16:57:36;;;;;;;0.60;0.20;;;23.80;84.10;;;;;;5042807;28;20443;-73
2023/09/13 17:00:07;;;;;;;0.70;0.10;;;23.70;84.80;;;;;;5043310;28;20458;-75
2023/09/13 17:02:35;;;;;;;0.70;0.10;;;23.70;85.30;;;;;;5046056;28;20525;-74
2023/09/13 17:05:04;;;;;;;0.60;0.20;;;23.70;85.50;;;;;;5045093;28;20448;-74
2023/09/13 17:07:32;;;;;;;0.60;0.10;;;23.70;85.90;;;;;;5047348;28;20553;-74
2023/09/13 17:10:00;;;;;;;0.60;0.10;;;23.60;85.90;;;;;;5040142;28;20902;-73
2023/09/13 17:12:28;;;;;;;0.60;0.20;;;23.60;86.60;;;;;;5034646;28;20449;-76
2023/09/13 17:14:56;;;;;;;0.60;0.20;;;23.60;93.50;;;;;;5035929;28;20453;-75
2023/09/13 17:17:25;;;;;;;0.60;0.10;;;23.50;88.40;;;;;;5036231;28;20536;-74
2023/09/13 17:19:53;;;;;;;0.60;0.10;;;;;;;;;;5035022;28;20464;-75
2023/09/13 17:22:22;;;;;;;0.80;0.40;;;;;;;;;;5034937;28;20445;-75